createdAt,value
2018-01-27T00:00:59.899Z,54.87
2018-01-27T00:03:27.499Z,50.63
2018-01-27T00:05:55.075Z,47.20
2018-01-27T00:08:23.383Z,51.97
2018-01-27T00:10:51.749Z,43.10
2018-01-27T00:13:20.083Z,50.47
2018-01-27T00:15:47.660Z,50.97
2018-01-27T00:18:16.000Z,52.07
2018-01-27T00:20:43.540Z,46.17
2018-01-27T00:23:11.079Z,49.60
2018-01-27T00:25:39.351Z,56.17
2018-01-27T00:28:07.648Z,51.57
2018-01-27T00:30:35.159Z,58.63
2018-01-27T00:33:02.665Z,53.80
2018-01-27T00:35:30.191Z,45.37
2018-01-27T00:37:57.699Z,75.50
2018-01-27T00:40:25.229Z,59.10
2018-01-27T00:42:53.503Z,53.27
2018-01-27T00:45:21.796Z,63.30
2018-01-27T00:47:49.327Z,55.80
2018-01-27T00:50:16.831Z,68.00
2018-01-27T00:55:18.300Z,60.50
2018-01-27T00:57:45.831Z,72.93
2018-01-27T01:00:14.110Z,64.73
2018-01-27T01:02:42.385Z,66.60
2018-01-27T01:05:10.793Z,62.23
2018-01-27T01:07:38.300Z,75.17
2018-01-27T01:10:05.831Z,73.63
2018-01-27T01:12:33.336Z,76.97
2018-01-27T01:15:01.616Z,78.97
2018-01-27T01:17:29.907Z,92.63
2018-01-27T01:19:57.415Z,79.70
2018-01-27T01:22:24.939Z,85.90
2018-01-27T01:24:52.444Z,91.63
2018-01-27T01:27:19.954Z,86.57
2018-01-27T01:29:47.488Z,84.27
2018-01-27T01:32:15.760Z,84.63
2018-01-27T01:34:44.053Z,82.67
2018-01-27T01:37:11.557Z,79.83
2018-01-27T01:39:39.059Z,97.10
2018-01-27T01:42:07.352Z,81.17
2018-01-27T01:44:34.867Z,87.10
2018-01-27T01:47:02.392Z,86.90
2018-01-27T01:49:29.902Z,96.67
2018-01-27T01:51:58.196Z,89.50
2018-01-27T01:54:26.464Z,88.57
2018-01-27T01:56:54.739Z,86.70
2018-01-27T01:59:23.019Z,78.40
2018-01-27T02:01:51.291Z,89.93
2018-01-27T02:04:19.584Z,86.43
2018-01-27T02:06:47.143Z,89.37
2018-01-27T02:09:14.719Z,83.03
2018-01-27T02:11:42.250Z,100.00
2018-01-27T02:14:10.522Z,89.70
2018-01-27T02:16:38.805Z,85.10
2018-01-27T02:19:07.401Z,98.07
2018-01-27T02:21:34.908Z,86.83
2018-01-27T02:24:02.424Z,84.90
2018-01-27T02:26:30.293Z,96.40
2018-01-27T02:28:57.803Z,89.10
2018-01-27T02:31:25.314Z,88.43
2018-01-27T02:33:52.853Z,91.77
2018-01-27T02:36:21.127Z,88.40
2018-01-27T02:38:49.402Z,101.80
2018-01-27T02:41:18.118Z,92.47
2018-01-27T02:43:45.624Z,88.23
2018-01-27T02:46:13.129Z,87.07
2018-01-27T02:48:40.952Z,103.97
2018-01-27T02:51:08.463Z,89.73
2018-01-27T02:53:35.969Z,100.00
2018-01-27T02:56:03.503Z,103.20
2018-01-27T02:58:31.013Z,101.87
2018-01-27T03:00:59.285Z,92.03
2018-01-27T03:03:28.004Z,100.17
2018-01-27T03:05:55.516Z,102.43
2018-01-27T03:08:23.016Z,95.13
2018-01-27T03:10:50.555Z,98.97
2018-01-27T03:13:18.831Z,115.80
2018-01-27T03:15:47.111Z,111.70
2018-01-27T03:18:15.406Z,108.37
2018-01-27T03:20:42.907Z,97.67
2018-01-27T03:23:10.419Z,103.33
2018-01-27T03:25:38.293Z,118.47
2018-01-27T03:28:05.796Z,95.97
2018-01-27T03:30:33.296Z,87.20
2018-01-27T03:33:01.175Z,107.47
2018-01-27T03:35:28.690Z,95.80
2018-01-27T03:40:31.204Z,112.13
2018-01-27T03:42:59.476Z,100.50
2018-01-27T03:45:27.709Z,107.47
2018-01-27T03:47:55.277Z,99.37
2018-01-27T03:50:22.778Z,86.40
2018-01-27T03:52:50.303Z,109.10
2018-01-27T03:55:17.832Z,101.03
2018-01-27T03:57:45.344Z,97.90
2018-01-27T04:00:13.620Z,110.87
2018-01-27T04:02:41.883Z,108.30
2018-01-27T04:05:09.431Z,97.73
2018-01-27T04:07:36.946Z,125.13
2018-01-27T04:10:04.481Z,92.53
2018-01-27T04:12:32.754Z,122.77
2018-01-27T04:15:01.031Z,106.10
2018-01-27T04:17:29.338Z,118.80
2018-01-27T04:19:56.852Z,122.50
2018-01-27T04:22:25.123Z,106.50
2018-01-27T04:24:52.956Z,110.57
2018-01-27T04:27:20.467Z,102.63
2018-01-27T04:29:48.750Z,114.93
2018-01-27T04:32:17.050Z,106.00
2018-01-27T04:34:44.555Z,112.40
2018-01-27T04:37:13.578Z,110.17
2018-01-27T04:39:42.186Z,111.20
2018-01-27T04:42:09.690Z,107.77
2018-01-27T04:44:37.199Z,107.47
2018-01-27T04:47:04.722Z,99.60
2018-01-27T04:49:33.000Z,110.07
2018-01-27T04:52:01.276Z,100.87
2018-01-27T04:54:29.574Z,101.23
2018-01-27T04:56:57.848Z,96.70
2018-01-27T04:59:26.117Z,92.37
2018-01-27T05:01:54.413Z,98.90
2018-01-27T05:04:21.928Z,98.90
2018-01-27T05:06:49.435Z,84.53
2018-01-27T05:09:17.303Z,71.13
2018-01-27T05:11:44.810Z,72.20
2018-01-27T05:14:12.319Z,91.07
2018-01-27T05:16:40.189Z,86.87
2018-01-27T05:19:07.697Z,69.20
2018-01-27T05:21:35.195Z,79.20
2018-01-27T05:24:02.978Z,78.73
2018-01-27T05:26:30.484Z,79.27
2018-01-27T05:28:57.992Z,81.37
2018-01-27T05:31:25.520Z,67.90
2018-01-27T05:33:53.799Z,73.40
2018-01-27T05:36:22.077Z,71.40
2018-01-27T05:38:50.372Z,79.47
2018-01-27T05:41:17.882Z,60.70
2018-01-27T05:43:45.398Z,72.30
2018-01-27T05:46:12.932Z,72.70
2018-01-27T05:48:41.206Z,70.07
2018-01-27T05:51:09.478Z,67.53
2018-01-27T05:53:37.767Z,75.53
2018-01-27T05:56:05.276Z,60.57
2018-01-27T05:58:32.792Z,68.27
2018-01-27T06:01:00.319Z,61.60
2018-01-27T06:03:27.822Z,68.20
2018-01-27T06:05:55.330Z,65.40
2018-01-27T06:08:22.859Z,60.60
2018-01-27T06:10:50.373Z,55.03
2018-01-27T06:13:18.643Z,61.00
2018-01-27T06:15:46.946Z,61.03
2018-01-27T06:18:15.298Z,56.40
2018-01-27T06:20:43.578Z,59.67
2018-01-27T06:23:11.876Z,58.90
2018-01-27T06:25:39.386Z,58.13
2018-01-27T06:28:06.887Z,57.43
2018-01-27T06:30:34.414Z,62.00
2018-01-27T06:33:01.916Z,52.20
2018-01-27T06:35:29.426Z,55.67
2018-01-27T06:37:56.947Z,54.97
2018-01-27T06:40:24.471Z,59.17
2018-01-27T06:42:52.742Z,55.20
2018-01-27T06:45:21.038Z,51.10
2018-01-27T06:47:48.547Z,54.20
2018-01-27T06:50:16.053Z,56.97
2018-01-27T06:52:43.583Z,51.27
2018-01-27T06:55:11.094Z,56.10
2018-01-27T06:57:38.604Z,59.30
2018-01-27T07:00:06.895Z,60.47
2018-01-27T07:02:35.168Z,65.97
2018-01-27T07:05:03.443Z,59.13
2018-01-27T07:07:31.745Z,53.13
2018-01-27T07:09:59.253Z,60.23
2018-01-27T07:12:26.767Z,70.10
2018-01-27T07:14:54.292Z,68.13
2018-01-27T07:17:22.564Z,60.53
2018-01-27T07:19:50.863Z,57.70
2018-01-27T07:22:18.389Z,65.30
2018-01-27T07:24:45.899Z,60.63
2018-01-27T07:27:13.428Z,75.77
2018-01-27T07:29:41.705Z,64.13
2018-01-27T07:32:10.007Z,72.90
2018-01-27T07:34:37.517Z,64.93
2018-01-27T07:37:05.043Z,73.63
2018-01-27T07:39:32.555Z,70.20
2018-01-27T07:42:00.837Z,68.70
2018-01-27T07:44:29.123Z,71.93
2018-01-27T07:46:56.637Z,82.57
2018-01-27T07:49:24.170Z,71.20
2018-01-27T07:51:51.692Z,65.50
2018-01-27T07:54:19.963Z,79.07
2018-01-27T07:56:48.256Z,94.17
2018-01-27T07:59:15.759Z,71.33
2018-01-27T08:01:43.325Z,76.77
2018-01-27T08:04:10.840Z,74.80
2018-01-27T08:06:38.346Z,64.67
2018-01-27T08:09:06.799Z,70.73
2018-01-27T08:11:34.311Z,79.27
2018-01-27T08:14:02.603Z,68.10
2018-01-27T08:16:30.870Z,64.60
2018-01-27T08:18:59.136Z,66.77
2018-01-27T08:21:27.431Z,66.70
2018-01-27T08:23:55.707Z,87.53
2018-01-27T08:26:24.004Z,67.00
2018-01-27T08:28:51.510Z,65.33
2018-01-27T08:31:19.099Z,70.20
2018-01-27T08:33:47.434Z,81.90
2018-01-27T08:36:14.969Z,79.27
2018-01-27T08:38:42.502Z,79.33
2018-01-27T08:41:10.776Z,66.30
2018-01-27T08:43:39.051Z,65.10
2018-01-27T08:46:07.339Z,63.77
2018-01-27T08:48:34.848Z,60.73
2018-01-27T08:51:02.385Z,62.23
2018-01-27T08:53:29.904Z,58.33
2018-01-27T08:55:58.175Z,59.10
2018-01-27T08:58:26.474Z,57.03
2018-01-27T09:00:53.983Z,61.27
2018-01-27T09:03:21.512Z,54.23
2018-01-27T09:05:49.021Z,62.73
2018-01-27T09:08:17.302Z,62.17
2018-01-27T09:10:45.598Z,54.60
2018-01-27T09:13:17.969Z,45.43
2018-01-27T09:15:46.775Z,49.33
2018-01-27T09:18:14.292Z,49.37
2018-01-27T09:20:41.803Z,40.97
2018-01-27T09:23:09.323Z,58.23
2018-01-27T09:25:37.596Z,37.17
2018-01-27T09:28:05.900Z,47.97
2018-01-27T09:30:33.415Z,41.97
2018-01-27T09:33:00.923Z,33.80
2018-01-27T09:35:28.416Z,35.57
2018-01-27T09:37:56.722Z,43.53
2018-01-27T09:40:25.147Z,40.73
2018-01-27T09:42:52.653Z,35.63
2018-01-27T09:45:20.158Z,37.30
2018-01-27T09:47:47.730Z,36.93
2018-01-27T09:50:15.220Z,33.00
2018-01-27T09:52:42.709Z,34.40
2018-01-27T09:55:10.246Z,32.57
2018-01-27T09:57:37.763Z,37.67
2018-01-27T10:00:05.287Z,41.90
2018-01-27T10:02:33.585Z,43.70
2018-01-27T10:05:01.151Z,32.07
2018-01-27T10:07:28.660Z,34.03
2018-01-27T10:09:56.167Z,32.60
2018-01-27T10:12:24.080Z,31.67
2018-01-27T10:14:51.590Z,33.80
2018-01-27T10:17:19.123Z,34.50
2018-01-27T10:19:47.411Z,32.33
2018-01-27T10:22:14.915Z,32.80
2018-01-27T10:24:42.473Z,38.93
2018-01-27T10:27:09.986Z,33.93
2018-01-27T10:29:37.969Z,30.97
2018-01-27T10:32:05.483Z,37.47
2018-01-27T10:34:32.992Z,33.03
2018-01-27T10:37:00.526Z,33.60
2018-01-27T10:39:28.800Z,29.87
2018-01-27T10:41:57.092Z,36.50
2018-01-27T10:44:24.615Z,36.17
2018-01-27T10:46:52.124Z,26.90
2018-01-27T10:49:19.658Z,30.00
2018-01-27T10:51:47.935Z,36.80
2018-01-27T10:54:16.223Z,29.77
2018-01-27T10:56:47.882Z,30.77
2018-01-27T10:59:15.423Z,29.10
2018-01-27T11:01:43.717Z,33.23
2018-01-27T11:04:11.233Z,29.97
2018-01-27T11:06:38.756Z,31.10
2018-01-27T11:09:06.272Z,35.03
2018-01-27T11:11:34.834Z,26.67
2018-01-27T11:14:03.139Z,31.33
2018-01-27T11:16:41.349Z,31.13
2018-01-27T11:19:09.624Z,30.80
2018-01-27T11:21:37.905Z,32.50
2018-01-27T11:24:06.208Z,31.23
2018-01-27T11:26:33.727Z,26.03
2018-01-27T11:29:02.029Z,26.97
2018-01-27T11:31:29.549Z,38.50
2018-01-27T11:33:57.061Z,31.73
2018-01-27T11:36:24.592Z,34.07
2018-01-27T11:38:52.870Z,37.00
2018-01-27T11:41:21.474Z,30.97
2018-01-27T11:43:48.988Z,29.27
2018-01-27T11:46:16.544Z,32.30
2018-01-27T11:48:44.056Z,23.73
2018-01-27T11:51:11.568Z,34.70
2018-01-27T11:53:39.103Z,30.60
2018-01-27T11:56:06.577Z,28.30
2018-01-27T11:58:34.881Z,23.60
2018-01-27T12:01:03.172Z,24.77
2018-01-27T12:03:30.735Z,25.43
2018-01-27T12:05:59.028Z,24.50
2018-01-27T12:08:26.532Z,24.77
2018-01-27T12:10:54.044Z,19.90
2018-01-27T12:13:21.574Z,30.63
2018-01-27T12:15:49.860Z,20.33
2018-01-27T12:18:17.397Z,22.40
2018-01-27T12:20:45.672Z,22.80
2018-01-27T12:23:13.912Z,19.30
2018-01-27T12:25:41.460Z,20.70
2018-01-27T12:28:08.969Z,28.57
2018-01-27T12:30:37.269Z,21.90
2018-01-27T12:33:04.787Z,20.37
2018-01-27T12:35:32.330Z,19.23
2018-01-27T12:37:59.899Z,12.67
2018-01-27T12:40:27.479Z,12.50
2018-01-27T12:42:56.163Z,18.60
2018-01-27T12:45:24.468Z,13.23
2018-01-27T12:47:52.008Z,13.03
2018-01-27T12:50:20.412Z,15.40
2018-01-27T12:52:48.695Z,15.27
2018-01-27T12:55:16.261Z,15.90
2018-01-27T12:57:43.821Z,16.90
2018-01-27T13:00:11.381Z,16.37
2018-01-27T13:02:38.969Z,14.33
2018-01-27T13:05:06.522Z,10.57
2018-01-27T13:07:34.092Z,19.70
2018-01-27T13:10:01.675Z,20.33
2018-01-27T13:12:30.020Z,16.40
2018-01-27T13:14:57.638Z,15.03
2018-01-27T13:17:25.183Z,14.93
2018-01-27T13:19:54.028Z,15.23
2018-01-27T13:22:21.607Z,19.70
2018-01-27T13:24:49.152Z,23.30
2018-01-27T13:27:17.647Z,16.90
2018-01-27T13:29:45.169Z,12.60
2018-01-27T13:32:12.700Z,16.10
2018-01-27T13:34:40.968Z,16.30
2018-01-27T13:37:09.240Z,9.60
2018-01-27T13:39:36.755Z,14.13
2018-01-27T13:42:04.221Z,18.33
2018-01-27T13:44:31.776Z,12.30
2018-01-27T13:46:59.283Z,14.80
2018-01-27T13:49:27.553Z,12.47
2018-01-27T13:51:55.843Z,10.50
2018-01-27T13:54:24.115Z,12.10
2018-01-27T13:56:52.403Z,10.97
2018-01-27T13:59:20.668Z,8.83
2018-01-27T14:01:48.937Z,8.70
2018-01-27T14:04:17.224Z,7.97
2018-01-27T14:06:45.450Z,9.17
2018-01-27T14:09:13.004Z,8.20
2018-01-27T14:11:40.517Z,12.40
2018-01-27T14:14:08.795Z,9.17
2018-01-27T14:16:37.079Z,9.70
2018-01-27T14:19:05.367Z,10.17
2018-01-27T14:21:32.894Z,13.97
2018-01-27T14:24:00.394Z,14.00
2018-01-27T14:26:27.894Z,11.97
2018-01-27T14:28:55.416Z,14.93
2018-01-27T14:31:22.919Z,10.73
2018-01-27T14:33:50.447Z,13.13
2018-01-27T14:36:17.955Z,11.60
2018-01-27T14:38:46.230Z,13.57
2018-01-27T14:43:48.512Z,17.13
2018-01-27T14:46:17.132Z,13.87
2018-01-27T14:48:44.640Z,14.90
2018-01-27T14:51:12.154Z,13.30
2018-01-27T14:53:39.670Z,15.37
2018-01-27T14:56:07.173Z,12.53
2018-01-27T14:58:34.700Z,16.97
2018-01-27T15:01:03.007Z,10.47
2018-01-27T15:03:30.511Z,14.03
2018-01-27T15:05:58.035Z,9.87
2018-01-27T15:08:25.540Z,8.77
2018-01-27T15:10:53.060Z,14.10
2018-01-27T15:13:20.563Z,12.40
2018-01-27T15:15:48.832Z,10.40
2018-01-27T15:18:16.359Z,11.93
2018-01-27T15:20:43.944Z,9.40
2018-01-27T15:23:11.471Z,10.73
2018-01-27T15:25:38.970Z,17.13
2018-01-27T15:28:06.499Z,13.10
2018-01-27T15:30:33.996Z,9.50
2018-01-27T15:33:02.292Z,11.23
2018-01-27T15:35:29.793Z,12.77
2018-01-27T15:37:57.311Z,11.93
2018-01-27T15:40:24.824Z,9.33
2018-01-27T15:42:52.346Z,11.73
2018-01-27T15:45:19.852Z,10.33
2018-01-27T15:47:47.554Z,10.20
2018-01-27T15:50:15.058Z,14.90
2018-01-27T15:52:42.555Z,9.53
2018-01-27T15:55:10.855Z,11.13
2018-01-27T15:57:38.352Z,10.50
2018-01-27T16:00:06.048Z,13.47
2018-01-27T16:02:34.313Z,11.00
2018-01-27T16:05:01.816Z,14.47
2018-01-27T16:07:29.342Z,14.40
2018-01-27T16:09:57.604Z,8.57
2018-01-27T16:12:29.666Z,9.53
2018-01-27T16:14:57.243Z,15.33
2018-01-27T16:17:25.568Z,10.33
2018-01-27T16:19:53.082Z,9.17
2018-01-27T16:22:22.443Z,9.77
2018-01-27T16:24:49.942Z,13.80
2018-01-27T16:27:20.985Z,10.00
2018-01-27T16:29:50.950Z,5.73
2018-01-27T16:32:20.174Z,8.70
2018-01-27T16:34:47.742Z,8.83
2018-01-27T16:37:16.228Z,11.03
2018-01-27T16:39:43.751Z,6.40
2018-01-27T16:42:11.251Z,6.70
2018-01-27T16:44:39.543Z,9.43
2018-01-27T16:47:07.819Z,6.27
2018-01-27T16:49:36.116Z,10.50
2018-01-27T16:52:03.628Z,10.47
2018-01-27T16:54:31.155Z,11.43
2018-01-27T16:56:58.684Z,15.90
2018-01-27T16:59:28.310Z,8.20
2018-01-27T17:01:55.845Z,7.23
2018-01-27T17:04:24.119Z,15.40
2018-01-27T17:06:52.418Z,11.10
2018-01-27T17:09:20.810Z,12.10
2018-01-27T17:11:48.409Z,14.37
2018-01-27T17:14:15.928Z,10.33
2018-01-27T17:16:43.455Z,6.57
2018-01-27T17:19:11.725Z,7.77
2018-01-27T17:21:41.378Z,6.53
2018-01-27T17:24:08.876Z,8.20
2018-01-27T17:26:36.435Z,11.47
2018-01-27T17:29:03.963Z,7.90
2018-01-27T17:31:31.472Z,7.40
2018-01-27T17:33:59.764Z,7.07
2018-01-27T17:36:27.288Z,8.03
2018-01-27T17:38:54.818Z,8.40
2018-01-27T17:41:22.351Z,13.00
2018-01-27T17:43:49.858Z,7.93
2018-01-27T17:46:17.387Z,6.40
2018-01-27T17:48:44.899Z,7.23
2018-01-27T17:51:13.312Z,7.50
2018-01-27T17:53:40.847Z,8.83
2018-01-27T17:56:09.112Z,5.50
2018-01-27T17:58:37.408Z,8.43
2018-01-27T18:01:04.917Z,7.77
2018-01-27T18:03:32.459Z,9.23
2018-01-27T18:05:59.978Z,6.13
2018-01-27T18:08:28.282Z,7.67
2018-01-27T18:10:55.761Z,11.23
2018-01-27T18:13:23.312Z,6.30
2018-01-27T18:15:50.823Z,8.37
2018-01-27T18:18:19.115Z,5.13
2018-01-27T18:20:46.624Z,10.50
2018-01-27T18:23:14.154Z,6.77
2018-01-27T18:25:41.652Z,5.70
2018-01-27T18:28:09.177Z,6.10
2018-01-27T18:30:36.675Z,8.43
2018-01-27T18:33:04.211Z,10.43
2018-01-27T18:35:31.719Z,10.60
2018-01-27T18:38:00.017Z,9.20
2018-01-27T18:40:27.520Z,14.10
2018-01-27T18:42:55.048Z,6.80
2018-01-27T18:45:22.548Z,7.63
2018-01-27T18:47:50.200Z,9.83
2018-01-27T18:50:17.728Z,8.20
2018-01-27T18:52:45.223Z,9.87
2018-01-27T18:55:12.747Z,7.87
2018-01-27T18:57:40.252Z,7.50
2018-01-27T19:00:08.655Z,13.20
2018-01-27T19:02:36.169Z,5.37
2018-01-27T19:05:03.692Z,9.23
2018-01-27T19:07:31.217Z,6.80
2018-01-27T19:09:59.514Z,8.37
2018-01-27T19:12:27.036Z,7.80
2018-01-27T19:14:54.559Z,8.33
2018-01-27T19:17:22.080Z,7.60
2018-01-27T19:19:50.344Z,10.03
2018-01-27T19:22:18.635Z,8.17
2018-01-27T19:24:46.159Z,11.23
2018-01-27T19:27:13.679Z,9.03
2018-01-27T19:29:41.180Z,9.63
2018-01-27T19:32:08.716Z,9.60
2018-01-27T19:34:36.222Z,9.50
2018-01-27T19:37:04.514Z,8.53
2018-01-27T19:39:32.019Z,11.80
2018-01-27T19:41:59.541Z,7.70
2018-01-27T19:44:27.040Z,9.00
2018-01-27T19:46:54.567Z,11.83
2018-01-27T19:49:22.068Z,7.03
2018-01-27T19:51:49.579Z,12.93
2018-01-27T19:54:17.923Z,7.50
2018-01-27T19:56:45.391Z,8.93
2018-01-27T19:59:13.703Z,8.47
2018-01-27T20:01:41.329Z,10.70
2018-01-27T20:04:09.600Z,10.40
2018-01-27T20:06:37.973Z,8.90
2018-01-27T20:09:05.747Z,12.40
2018-01-27T20:11:34.427Z,8.87
2018-01-27T20:14:02.697Z,11.40
2018-01-27T20:16:30.971Z,10.57
2018-01-27T20:18:59.223Z,12.23
2018-01-27T20:21:26.779Z,11.27
2018-01-27T20:23:54.323Z,11.10
2018-01-27T20:26:21.868Z,9.80
2018-01-27T20:28:49.374Z,7.53
2018-01-27T20:31:16.903Z,10.47
2018-01-27T20:33:45.966Z,9.43
2018-01-27T20:36:14.345Z,12.93
2018-01-27T20:38:41.860Z,8.43
2018-01-27T20:41:09.373Z,11.90
2018-01-27T20:43:36.897Z,7.30
2018-01-27T20:46:05.174Z,7.23
2018-01-27T20:48:34.035Z,9.73
2018-01-27T20:51:01.568Z,7.37
2018-01-27T20:53:29.076Z,7.87
2018-01-27T20:55:56.604Z,4.63
2018-01-27T20:58:24.108Z,9.13
2018-01-27T21:00:52.383Z,7.40
2018-01-27T21:03:20.922Z,6.23
2018-01-27T21:05:48.419Z,6.30
2018-01-27T21:08:16.702Z,6.77
2018-01-27T21:10:44.990Z,3.90
2018-01-27T21:13:12.483Z,5.57
2018-01-27T21:15:39.987Z,8.43
2018-01-27T21:18:08.271Z,8.77
2018-01-27T21:20:36.526Z,10.03
2018-01-27T21:23:04.034Z,8.87
2018-01-27T21:25:32.617Z,4.27
2018-01-27T21:28:00.111Z,6.17
2018-01-27T21:30:27.944Z,4.47
2018-01-27T21:32:57.958Z,7.73
2018-01-27T21:35:25.789Z,8.20
2018-01-27T21:37:53.334Z,5.17
2018-01-27T21:40:20.846Z,5.67
2018-01-27T21:42:48.683Z,4.43
2018-01-27T21:45:16.968Z,6.93
2018-01-27T21:47:45.198Z,3.83
2018-01-27T21:50:12.737Z,8.17
2018-01-27T21:52:40.235Z,4.60
2018-01-27T21:55:08.049Z,7.83
2018-01-27T21:57:35.555Z,3.77
2018-01-27T22:00:03.067Z,8.50
2018-01-27T22:02:30.597Z,4.63
2018-01-27T22:04:58.871Z,5.67
2018-01-27T22:07:27.490Z,4.97
2018-01-27T22:09:54.993Z,7.57
2018-01-27T22:12:22.457Z,5.03
2018-01-27T22:14:50.003Z,5.53
2018-01-27T22:17:17.504Z,5.00
2018-01-27T22:19:45.288Z,5.87
2018-01-27T22:22:12.794Z,3.43
2018-01-27T22:24:40.302Z,5.47
2018-01-27T22:27:07.819Z,7.90
2018-01-27T22:29:35.319Z,5.90
2018-01-27T22:32:02.843Z,6.47
2018-01-27T22:34:31.116Z,6.03
2018-01-27T22:36:59.396Z,4.70
2018-01-27T22:39:27.673Z,6.13
2018-01-27T22:41:56.055Z,5.70
2018-01-27T22:44:23.861Z,4.90
2018-01-27T22:46:51.388Z,7.40
2018-01-27T22:49:19.664Z,5.13
2018-01-27T22:51:47.950Z,6.60
2018-01-27T22:54:15.451Z,6.77
2018-01-27T22:56:42.976Z,8.40
2018-01-27T22:59:10.482Z,9.17
2018-01-27T23:01:37.983Z,8.60
2018-01-27T23:04:05.505Z,10.70
2018-01-27T23:06:32.999Z,9.53
2018-01-27T23:09:00.519Z,6.97
2018-01-27T23:11:28.019Z,7.47
